createdAt,value
2023-03-12T00:01:19.518Z,2.70
2023-03-12T00:03:48.670Z,2.90
2023-03-12T00:06:18.001Z,4.10
2023-03-12T00:08:48.345Z,2.80
2023-03-12T00:11:18.270Z,3.30
2023-03-12T00:13:52.215Z,2.80
2023-03-12T00:16:21.061Z,3.50
2023-03-12T00:18:50.325Z,2.90
2023-03-12T00:21:18.871Z,3.10
2023-03-12T00:23:47.956Z,4.30
2023-03-12T00:26:18.231Z,4.20
2023-03-12T00:28:47.836Z,4.60
2023-03-12T00:31:21.693Z,4.40
2023-03-12T00:33:50.443Z,4.90
2023-03-12T00:36:19.938Z,4.90
2023-03-12T00:38:48.107Z,5.10
2023-03-12T00:41:16.198Z,5.40
2023-03-12T00:43:44.459Z,5.00
2023-03-12T00:46:12.728Z,4.40
2023-03-12T00:48:40.945Z,5.10
2023-03-12T00:51:09.403Z,4.60
2023-03-12T00:53:37.662Z,4.60
2023-03-12T00:56:06.261Z,5.10
2023-03-12T00:58:34.337Z,4.00
2023-03-12T01:01:03.744Z,4.70
2023-03-12T01:03:32.135Z,4.50
2023-03-12T01:06:01.054Z,4.40
2023-03-12T01:08:30.433Z,3.60
2023-03-12T01:10:58.584Z,3.50
2023-03-12T01:13:27.108Z,3.00
2023-03-12T01:15:55.382Z,2.50
2023-03-12T01:18:23.610Z,2.00
2023-03-12T01:20:51.676Z,1.90
2023-03-12T01:23:19.691Z,1.90
2023-03-12T01:25:48.039Z,1.60
2023-03-12T01:28:16.058Z,1.60
2023-03-12T01:30:44.712Z,1.80
2023-03-12T01:33:13.389Z,2.20
2023-03-12T01:35:41.890Z,1.70
2023-03-12T01:38:14.677Z,1.60
2023-03-12T01:40:43.219Z,1.60
2023-03-12T01:43:24.962Z,1.40
2023-03-12T01:46:15.207Z,1.60
2023-03-12T01:48:49.200Z,1.40
2023-03-12T01:51:17.886Z,1.80
2023-03-12T01:53:48.244Z,1.40
2023-03-12T01:56:17.715Z,1.40
2023-03-12T01:58:48.410Z,1.20
2023-03-12T02:01:17.375Z,1.30
2023-03-12T02:03:47.528Z,1.30
2023-03-12T02:06:16.588Z,1.10
2023-03-12T02:08:45.796Z,1.30
2023-03-12T02:11:14.223Z,1.10
2023-03-12T02:13:43.273Z,1.20
2023-03-12T02:16:12.498Z,0.90
2023-03-12T02:18:41.159Z,1.40
2023-03-12T02:21:18.304Z,1.50
2023-03-12T02:23:55.923Z,1.20
2023-03-12T02:26:25.083Z,1.10
2023-03-12T02:28:53.176Z,1.40
2023-03-12T02:31:24.724Z,1.20
2023-03-12T02:33:56.207Z,1.20
2023-03-12T02:36:24.787Z,1.30
2023-03-12T02:38:53.767Z,1.50
2023-03-12T02:41:42.433Z,1.20
2023-03-12T02:44:19.240Z,1.20
2023-03-12T02:46:51.214Z,1.50
2023-03-12T02:49:20.255Z,1.20
2023-03-12T02:51:48.726Z,1.30
2023-03-12T02:54:18.172Z,1.10
2023-03-12T02:56:46.825Z,2.00
2023-03-12T02:59:15.701Z,1.50
2023-03-12T03:01:44.772Z,1.30
2023-03-12T03:04:13.776Z,1.20
2023-03-12T03:06:42.339Z,1.60
2023-03-12T03:09:10.821Z,2.70
2023-03-12T03:11:39.295Z,2.70
2023-03-12T03:14:07.854Z,3.10
2023-03-12T03:16:37.189Z,1.70
2023-03-12T03:19:07.479Z,2.10
2023-03-12T03:21:35.900Z,1.80
2023-03-12T03:24:06.226Z,2.20
2023-03-12T03:26:34.458Z,2.00
2023-03-12T03:29:03.795Z,2.30
2023-03-12T03:31:33.346Z,1.90
2023-03-12T03:34:01.472Z,2.30
2023-03-12T03:36:29.980Z,2.20
2023-03-12T03:39:17.230Z,1.80
2023-03-12T03:41:47.382Z,2.30
2023-03-12T03:44:16.195Z,3.90
2023-03-12T03:46:45.393Z,2.10
2023-03-12T03:49:13.611Z,2.40
2023-03-12T03:51:43.078Z,2.60
2023-03-12T03:54:13.789Z,2.90
2023-03-12T03:56:42.690Z,2.30
2023-03-12T03:59:13.466Z,2.60
2023-03-12T04:01:43.644Z,3.20
2023-03-12T04:04:12.148Z,3.00
2023-03-12T04:06:46.143Z,2.30
2023-03-12T04:09:15.361Z,2.20
2023-03-12T04:11:45.373Z,3.30
2023-03-12T04:14:13.936Z,3.00
2023-03-12T04:16:47.184Z,2.50
2023-03-12T04:19:15.835Z,2.40
2023-03-12T04:21:43.965Z,2.90
2023-03-12T04:24:15.386Z,2.80
2023-03-12T04:26:43.721Z,2.70
2023-03-12T04:29:11.936Z,2.40
2023-03-12T04:31:41.874Z,2.60
2023-03-12T04:34:11.456Z,2.10
2023-03-12T04:36:42.150Z,2.40
2023-03-12T04:39:10.489Z,2.50
2023-03-12T04:41:39.314Z,2.80
2023-03-12T04:44:14.275Z,2.80
2023-03-12T04:46:43.000Z,3.20
2023-03-12T04:49:13.468Z,3.30
2023-03-12T04:51:42.152Z,3.30
2023-03-12T04:54:12.536Z,3.30
2023-03-12T04:56:42.159Z,3.40
2023-03-12T04:59:14.333Z,3.20
2023-03-12T05:01:43.895Z,3.30
2023-03-12T05:04:20.084Z,2.90
2023-03-12T05:06:48.363Z,3.50
2023-03-12T05:09:16.434Z,2.90
2023-03-12T05:11:44.636Z,3.40
2023-03-12T05:14:16.825Z,3.80
2023-03-12T05:16:45.236Z,3.60
2023-03-12T05:19:19.432Z,3.70
2023-03-12T05:21:47.882Z,3.10
2023-03-12T05:24:16.528Z,2.70
2023-03-12T05:26:45.691Z,3.20
2023-03-12T05:29:19.130Z,3.30
2023-03-12T05:31:48.191Z,3.50
2023-03-12T05:34:16.613Z,3.30
2023-03-12T05:36:46.074Z,3.60
2023-03-12T05:39:16.062Z,2.90
2023-03-12T05:41:44.645Z,3.00
2023-03-12T05:44:19.487Z,3.90
2023-03-12T05:46:52.767Z,3.70
2023-03-12T05:49:26.466Z,2.90
2023-03-12T05:51:55.161Z,3.10
2023-03-12T05:54:25.172Z,2.90
2023-03-12T05:56:56.734Z,3.00
2023-03-12T05:59:26.976Z,3.50
2023-03-12T06:01:56.292Z,3.20
2023-03-12T06:04:24.918Z,3.30
2023-03-12T06:06:54.534Z,2.70
2023-03-12T06:09:26.658Z,3.20
2023-03-12T06:11:57.987Z,3.10
2023-03-12T06:14:28.694Z,3.20
2023-03-12T06:17:01.755Z,3.10
2023-03-12T06:20:10.401Z,2.80
2023-03-12T06:23:10.356Z,3.40
2023-03-12T06:25:40.086Z,3.00
2023-03-12T06:28:10.639Z,3.80
2023-03-12T06:30:42.776Z,2.90
2023-03-12T06:33:12.939Z,2.90
2023-03-12T06:35:47.258Z,3.00
2023-03-12T06:38:16.758Z,3.50
2023-03-12T06:40:57.005Z,3.30
2023-03-12T06:43:26.508Z,2.40
2023-03-12T06:45:57.900Z,2.80
2023-03-12T06:48:36.723Z,2.40
2023-03-12T06:51:06.156Z,2.80
2023-03-12T06:53:41.862Z,3.40
2023-03-12T06:56:19.154Z,2.20
2023-03-12T06:59:11.292Z,2.30
2023-03-12T07:05:02.433Z,3.40
2023-03-12T07:07:35.066Z,2.10
2023-03-12T07:10:10.469Z,2.60
2023-03-12T07:12:42.659Z,2.10
2023-03-12T07:15:13.988Z,2.30
2023-03-12T07:17:45.396Z,3.10
2023-03-12T07:20:13.806Z,2.70
2023-03-12T07:22:45.747Z,2.40
2023-03-12T07:25:18.965Z,2.60
2023-03-12T07:27:55.265Z,2.00
2023-03-12T07:30:46.378Z,2.50
2023-03-12T07:33:23.823Z,3.70
2023-03-12T07:35:56.271Z,2.20
2023-03-12T07:38:26.479Z,2.50
2023-03-12T07:47:24.206Z,2.60
2023-03-12T07:50:01.185Z,3.10
2023-03-12T07:52:50.678Z,2.50
2023-03-12T07:55:19.909Z,2.30
2023-03-12T07:57:57.442Z,2.90
2023-03-12T08:00:30.695Z,2.70
2023-03-12T08:06:03.821Z,2.20
2023-03-12T08:08:33.141Z,2.40
2023-03-12T08:11:05.235Z,2.60
2023-03-12T08:13:34.679Z,2.50
2023-03-12T08:16:04.475Z,2.60
2023-03-12T08:18:38.385Z,2.30
2023-03-12T08:21:10.346Z,2.70
2023-03-12T08:23:42.150Z,2.60
2023-03-12T08:26:19.498Z,2.20
2023-03-12T08:28:48.076Z,2.30
2023-03-12T08:31:17.774Z,2.80
2023-03-12T08:33:48.579Z,3.70
2023-03-12T08:36:17.217Z,2.30
2023-03-12T08:38:51.311Z,2.30
2023-03-12T08:41:22.240Z,2.10
2023-03-12T08:43:52.953Z,2.60
2023-03-12T08:46:21.093Z,2.30
2023-03-12T08:48:49.720Z,1.90
2023-03-12T08:51:20.941Z,2.00
2023-03-12T08:53:49.209Z,2.30
2023-03-12T08:56:17.617Z,2.80
2023-03-12T08:58:47.150Z,3.00
2023-03-12T09:01:15.332Z,2.10
2023-03-12T09:03:46.240Z,1.70
2023-03-12T09:06:17.279Z,2.60
2023-03-12T09:08:52.016Z,2.50
2023-03-12T09:11:21.769Z,2.90
2023-03-12T09:14:18.632Z,2.30
2023-03-12T09:16:43.351Z,2.00
2023-03-12T09:19:12.622Z,1.60
2023-03-12T09:21:49.642Z,2.50
2023-03-12T09:24:26.547Z,2.50
2023-03-12T09:27:06.164Z,2.00
2023-03-12T09:29:34.769Z,2.40
2023-03-12T09:32:06.045Z,2.90
2023-03-12T09:34:35.355Z,2.70
2023-03-12T09:37:04.642Z,1.70
2023-03-12T09:39:33.655Z,2.20
2023-03-12T09:42:03.605Z,2.50
2023-03-12T09:44:36.637Z,2.40
2023-03-12T09:47:31.239Z,2.30
2023-03-12T09:50:06.188Z,2.50
2023-03-12T09:52:43.715Z,2.80
2023-03-12T09:55:16.720Z,2.40
2023-03-12T09:57:45.500Z,2.20
2023-03-12T10:00:18.892Z,2.20
2023-03-12T10:02:53.683Z,2.60
2023-03-12T10:05:48.222Z,2.00
2023-03-12T10:08:38.791Z,2.50
2023-03-12T10:11:08.649Z,3.30
2023-03-12T10:13:47.579Z,2.70
2023-03-12T10:16:25.374Z,1.90
2023-03-12T10:19:09.383Z,1.90
2023-03-12T10:22:06.433Z,2.10
2023-03-12T10:24:46.528Z,1.80
2023-03-12T10:27:15.995Z,1.90
2023-03-12T10:29:46.241Z,2.10
2023-03-12T10:32:17.771Z,2.20
2023-03-12T10:34:47.864Z,2.30
2023-03-12T10:37:24.491Z,2.10
2023-03-12T10:39:55.702Z,1.50
2023-03-12T10:42:25.325Z,2.10
2023-03-12T10:44:58.211Z,1.90
2023-03-12T10:47:44.064Z,3.80
2023-03-12T10:50:23.752Z,2.20
2023-03-12T10:52:53.856Z,2.30
2023-03-12T10:55:29.762Z,2.10
2023-03-12T10:58:00.003Z,2.10
2023-03-12T11:00:33.941Z,1.70
2023-03-12T11:03:05.112Z,4.30
2023-03-12T11:05:49.975Z,2.00
2023-03-12T11:08:33.431Z,1.80
2023-03-12T11:13:38.191Z,2.30
2023-03-12T11:16:26.502Z,1.80
2023-03-12T11:19:03.822Z,2.40
2023-03-12T11:21:37.261Z,2.60
2023-03-12T11:24:12.931Z,2.40
2023-03-12T11:26:48.172Z,2.10
2023-03-12T11:29:27.035Z,2.40
2023-03-12T11:31:58.173Z,2.40
2023-03-12T11:34:31.711Z,2.60
2023-03-12T11:37:28.305Z,3.10
2023-03-12T11:40:17.643Z,2.40
2023-03-12T11:43:43.390Z,2.20
